Pacific Junction, Iowa
Current Conditions -  °F | °C
As of 10:15 AM on Thursday 29 Jan 2015 (Local Time) from KPMV Reporting Station
Overcast Overcast  
Wind Chill: 26°   Ceiling: 2200
Heat Index: 37°   Visibility: 10mi
Dew Point: 26°   Wind: 18mph
Humidity: 66%   Direction: 330°NNW
Pressure: 30.36"   Gusts: 29mph
Location:  41.02°N, 95.8°W
Report Text: KPMV 291615Z AUTO 33016G25KT 10SM OVC022 03/M03 A3036 RMK AO2 T00251032
Loading
Personal Weather Stations






























Interactive Weather Map New forecast layout! Learn more

10-Day Weather Forecast

Advertisements
Track Severe Weather on mobile